No particular awareness of the weather is required.    There are no Weather-warnings


Meteo18 Weather Cam more information Meteo18 Weather Cam


Thunder radar more information blitzortung!


Rain radar more information rain snow radar


Visit our other weather sites:

Template documentation
and downloads

And another site



Weather Underground History page Text

Daily Summary for October 4, 2017 Units:  Metric    English   Both
« Previous Day
Next Day »
Daily Weekly Monthly Yearly Custom
  High: Low: Average:
Temperature: 18.9 °C 6.4 °C 11.6 °C
Dew Point: 11.3 °C 5.7 °C 8.4 °C
Humidity: 96 % 52 % 82 %
Wind Speed: 4.8 km/h 0.0 km/h 0.6 km/h
Wind Gust: 9.7 km/h - -
Wind:- - SSW
Pressure: 1028.0 hPa 1025.3 hPa -
Precipitation: 0.0 mm    
Historical Graphs
 
 
Tabular Data for October 4, 2017
Time Temperature Dew Point Pressure Wind Wind Speed Wind Gust Humidity Rainfall Rate (Hourly)
00:02 9.3 °C 7.9 °C 1028.0 hPa WNW 1.6 km/h 1.6 km/h 91 % 0.0 mm
00:12 9.1 °C 7.9 °C 1028.0 hPa Calm   3.2 km/h 92 % 0.0 mm
00:17 9.0 °C 7.6 °C 1028.0 hPa Calm   3.2 km/h 91 % 0.0 mm
00:22 9.0 °C 7.8 °C 1028.0 hPa WNW 1.6 km/h 3.2 km/h 92 % 0.0 mm
00:32 8.8 °C 7.6 °C 1028.0 hPa Calm   1.6 km/h 92 % 0.0 mm
00:42 8.7 °C 7.6 °C 1028.0 hPa Calm   1.6 km/h 93 % 0.0 mm
00:47 8.7 °C 7.6 °C 1028.0 hPa North 1.6 km/h 1.6 km/h 93 % 0.0 mm
00:52 8.9 °C 7.8 °C 1028.0 hPa NNW 1.6 km/h 3.2 km/h 93 % 0.0 mm
00:57 8.9 °C 7.8 °C 1028.0 hPa Calm   3.2 km/h 93 % 0.0 mm
01:02 8.7 °C 7.5 °C 1027.7 hPa Calm   3.2 km/h 92 % 0.0 mm
01:12 8.6 °C 7.5 °C 1027.7 hPa NNE 1.6 km/h   93 % 0.0 mm
01:17 8.6 °C 7.5 °C 1027.7 hPa Calm   1.6 km/h 93 % 0.0 mm
01:22 8.4 °C 7.2 °C 1027.7 hPa Calm   1.6 km/h 92 % 0.0 mm
01:27 8.4 °C 7.3 °C 1027.7 hPa Calm   1.6 km/h 93 % 0.0 mm
01:32 8.3 °C 7.2 °C 1027.7 hPa Calm   1.6 km/h 93 % 0.0 mm
01:37 8.2 °C 7.1 °C 1027.3 hPa Calm   1.6 km/h 93 % 0.0 mm
01:42 8.3 °C 7.4 °C 1027.3 hPa NNW 1.6 km/h 1.6 km/h 94 % 0.0 mm
01:47 8.3 °C 7.4 °C 1027.3 hPa NNW 3.2 km/h 3.2 km/h 94 % 0.0 mm
01:52 8.3 °C 7.4 °C 1027.3 hPa Calm   4.8 km/h 94 % 0.0 mm
01:57 8.2 °C 7.3 °C 1027.3 hPa NW 1.6 km/h 4.8 km/h 94 % 0.0 mm
02:02 8.2 °C 7.3 °C 1027.0 hPa Calm   4.8 km/h 94 % 0.0 mm
02:12 8.1 °C 7.2 °C 1027.0 hPa WNW 1.6 km/h 1.6 km/h 94 % 0.0 mm
02:17 8.0 °C 7.1 °C 1027.3 hPa Calm   1.6 km/h 94 % 0.0 mm
02:22 7.9 °C 7.0 °C 1027.3 hPa Calm   1.6 km/h 94 % 0.0 mm
02:27 7.8 °C 6.9 °C 1027.3 hPa Calm   1.6 km/h 94 % 0.0 mm
02:32 7.9 °C 7.1 °C 1027.3 hPa North 1.6 km/h 1.6 km/h 95 % 0.0 mm
02:37 7.9 °C 7.1 °C 1027.3 hPa NNW 1.6 km/h 3.2 km/h 95 % 0.0 mm
02:42 8.1 °C 7.3 °C 1027.3 hPa Calm   3.2 km/h 95 % 0.0 mm
02:47 8.2 °C 7.4 °C 1027.0 hPa Calm   3.2 km/h 95 % 0.0 mm
02:52 8.2 °C 7.3 °C 1027.0 hPa Calm   3.2 km/h 94 % 0.0 mm
02:57 8.1 °C 7.0 °C 1027.0 hPa NNW 1.6 km/h 1.6 km/h 93 % 0.0 mm
03:02 7.9 °C 7.0 °C 1027.0 hPa Calm   1.6 km/h 94 % 0.0 mm
03:07 7.9 °C 7.0 °C 1027.0 hPa Calm   1.6 km/h 94 % 0.0 mm
03:12 8.0 °C 7.1 °C 1027.0 hPa Calm   1.6 km/h 94 % 0.0 mm
03:17 8.0 °C 7.1 °C 1027.3 hPa NNW 1.6 km/h 3.2 km/h 94 % 0.0 mm
03:22 7.9 °C 7.0 °C 1027.3 hPa NNW 3.2 km/h 3.2 km/h 94 % 0.0 mm
03:27 7.8 °C 6.9 °C 1027.7 hPa NNW 1.6 km/h 4.8 km/h 94 % 0.0 mm
03:32 7.8 °C 6.9 °C 1027.3 hPa North 1.6 km/h 4.8 km/h 94 % 0.0 mm
03:42 8.0 °C 7.1 °C 1027.0 hPa Calm   3.2 km/h 94 % 0.0 mm
03:47 7.9 °C 6.8 °C 1027.0 hPa Calm   1.6 km/h 93 % 0.0 mm
03:52 7.8 °C 6.7 °C 1027.3 hPa NW 1.6 km/h 1.6 km/h 93 % 0.0 mm
03:57 7.7 °C 6.6 °C 1027.3 hPa Calm   1.6 km/h 93 % 0.0 mm
04:02 7.8 °C 6.9 °C 1027.0 hPa Calm   1.6 km/h 94 % 0.0 mm
04:07 7.7 °C 6.6 °C 1027.0 hPa Calm   1.6 km/h 93 % 0.0 mm
04:12 7.4 °C 6.3 °C 1027.3 hPa Calm   1.6 km/h 93 % 0.0 mm
04:17 7.4 °C 6.5 °C 1027.3 hPa North 3.2 km/h 3.2 km/h 94 % 0.0 mm
04:22 7.6 °C 6.9 °C 1027.3 hPa North 1.6 km/h 3.2 km/h 95 % 0.0 mm
04:27 7.7 °C 6.8 °C 1027.3 hPa NNW 1.6 km/h 3.2 km/h 94 % 0.0 mm
04:32 7.8 °C 6.9 °C 1027.0 hPa Calm   3.2 km/h 94 % 0.0 mm
04:37 7.7 °C 6.8 °C 1027.0 hPa Calm   3.2 km/h 94 % 0.0 mm
04:42 7.6 °C 6.5 °C 1027.0 hPa Calm   3.2 km/h 93 % 0.0 mm
04:47 7.3 °C 6.2 °C 1027.0 hPa NW 1.6 km/h   93 % 0.0 mm
04:52 7.2 °C 6.3 °C 1027.3 hPa Calm   3.2 km/h 94 % 0.0 mm
04:57 7.2 °C 6.3 °C 1027.3 hPa Calm   3.2 km/h 94 % 0.0 mm
05:02 7.2 °C 6.3 °C 1027.0 hPa Calm   3.2 km/h 94 % 0.0 mm
05:07 7.1 °C 6.2 °C 1027.3 hPa North 1.6 km/h 1.6 km/h 94 % 0.0 mm
05:17 7.1 °C 6.4 °C 1027.3 hPa North 1.6 km/h 3.2 km/h 95 % 0.0 mm
05:22 7.1 °C 6.4 °C 1027.0 hPa North 1.6 km/h 3.2 km/h 95 % 0.0 mm
05:32 7.1 °C 6.4 °C 1027.3 hPa North 1.6 km/h 1.6 km/h 95 % 0.0 mm
05:37 7.0 °C 6.3 °C 1027.3 hPa North 1.6 km/h 1.6 km/h 95 % 0.0 mm
05:42 6.9 °C 6.2 °C 1027.3 hPa North 1.6 km/h 1.6 km/h 95 % 0.0 mm
05:47 6.8 °C 5.9 °C 1027.3 hPa Calm   3.2 km/h 94 % 0.0 mm
05:57 6.8 °C 6.1 °C 1027.3 hPa Calm   3.2 km/h 95 % 0.0 mm
06:02 6.8 °C 6.1 °C 1027.3 hPa Calm   3.2 km/h 95 % 0.0 mm
06:12 6.7 °C 5.8 °C 1027.3 hPa Calm   1.6 km/h 94 % 0.0 mm
06:17 6.5 °C 5.8 °C 1027.0 hPa Calm     95 % 0.0 mm
06:22 6.4 °C 5.7 °C 1027.0 hPa Calm     95 % 0.0 mm
06:32 6.5 °C 5.8 °C 1027.0 hPa Calm   1.6 km/h 95 % 0.0 mm
06:37 6.6 °C 6.0 °C 1027.0 hPa Calm   1.6 km/h 96 % 0.0 mm
06:42 6.8 °C 6.2 °C 1027.0 hPa Calm   1.6 km/h 96 % 0.0 mm
06:47 6.9 °C 6.3 °C 1027.3 hPa Calm   1.6 km/h 96 % 0.0 mm
06:57 6.9 °C 6.2 °C 1027.3 hPa Calm   3.2 km/h 95 % 0.0 mm
07:02 6.9 °C 6.2 °C 1027.0 hPa Calm   3.2 km/h 95 % 0.0 mm
07:12 6.9 °C 6.2 °C 1027.3 hPa Calm   1.6 km/h 95 % 0.0 mm
07:17 6.9 °C 6.3 °C 1027.0 hPa Calm     96 % 0.0 mm
07:22 6.9 °C 6.3 °C 1027.0 hPa Calm   1.6 km/h 96 % 0.0 mm
07:27 7.0 °C 6.4 °C 1027.0 hPa Calm   1.6 km/h 96 % 0.0 mm
07:32 7.1 °C 6.5 °C 1027.0 hPa Calm   1.6 km/h 96 % 0.0 mm
07:47 6.8 °C 6.1 °C 1027.0 hPa Calm     95 % 0.0 mm
07:52 6.8 °C 6.2 °C 1027.0 hPa Calm     96 % 0.0 mm
07:57 6.9 °C 6.3 °C 1027.0 hPa Calm     96 % 0.0 mm
08:02 6.9 °C 6.3 °C 1027.3 hPa NNE 1.6 km/h 1.6 km/h 96 % 0.0 mm
08:12 6.9 °C 6.3 °C 1027.3 hPa Calm   1.6 km/h 96 % 0.0 mm
08:17 6.9 °C 6.3 °C 1027.0 hPa Calm   1.6 km/h 96 % 0.0 mm
08:22 6.9 °C 6.3 °C 1027.0 hPa Calm   1.6 km/h 96 % 0.0 mm
08:32 7.1 °C 6.5 °C 1027.0 hPa Calm     96 % 0.0 mm
08:37 7.2 °C 6.6 °C 1027.0 hPa Calm     96 % 0.0 mm
08:42 7.3 °C 6.7 °C 1027.3 hPa Calm     96 % 0.0 mm
08:52 7.5 °C 6.9 °C 1027.3 hPa Calm     96 % 0.0 mm
08:57 7.6 °C 7.0 °C 1027.3 hPa Calm     96 % 0.0 mm
09:02 7.7 °C 7.1 °C 1027.3 hPa Calm     96 % 0.0 mm
09:12 7.9 °C 7.3 °C 1027.3 hPa Calm     96 % 0.0 mm
09:17 8.1 °C 7.5 °C 1027.7 hPa Calm     96 % 0.0 mm
09:22 8.2 °C 7.6 °C 1027.7 hPa Calm     96 % 0.0 mm
09:27 8.3 °C 7.7 °C 1027.7 hPa Calm     96 % 0.0 mm
09:32 8.4 °C 7.8 °C 1027.7 hPa Calm     96 % 0.0 mm
09:37 8.5 °C 7.9 °C 1027.7 hPa Calm     96 % 0.0 mm
09:42 8.7 °C 8.1 °C 1027.7 hPa Calm     96 % 0.0 mm
09:47 8.8 °C 8.2 °C 1027.7 hPa Calm     96 % 0.0 mm
09:52 9.0 °C 8.4 °C 1027.7 hPa Calm     96 % 0.0 mm
09:57 9.1 °C 8.5 °C 1027.7 hPa Calm     96 % 0.0 mm
10:02 9.2 °C 8.4 °C 1027.7 hPa Calm     95 % 0.0 mm
10:12 9.6 °C 8.8 °C 1027.7 hPa Calm     95 % 0.0 mm
10:17 9.9 °C 9.1 °C 1027.7 hPa Calm     95 % 0.0 mm
10:22 10.1 °C 9.2 °C 1027.7 hPa Calm     94 % 0.0 mm
10:27 10.3 °C 9.4 °C 1027.7 hPa Calm     94 % 0.0 mm
10:32 10.5 °C 9.4 °C 1027.7 hPa Calm     93 % 0.0 mm
10:37 10.7 °C 9.5 °C 1028.0 hPa Calm     92 % 0.0 mm
10:42 11.0 °C 9.6 °C 1028.0 hPa Calm     91 % 0.0 mm
10:47 11.1 °C 9.2 °C 1028.0 hPa Calm     88 % 0.0 mm
10:52 11.3 °C 9.2 °C 1028.0 hPa Calm     87 % 0.0 mm
10:57 11.3 °C 8.5 °C 1028.0 hPa Calm     83 % 0.0 mm
11:02 11.4 °C 9.0 °C 1028.0 hPa Calm     85 % 0.0 mm
11:12 11.8 °C 9.2 °C 1028.0 hPa Calm     84 % 0.0 mm
11:17 12.0 °C 9.4 °C 1028.0 hPa Calm     84 % 0.0 mm
11:22 12.1 °C 9.3 °C 1028.0 hPa Calm   3.2 km/h 83 % 0.0 mm
11:32 12.8 °C 9.8 °C 1028.0 hPa Calm   3.2 km/h 82 % 0.0 mm
11:37 13.2 °C 9.8 °C 1028.0 hPa Calm   1.6 km/h 80 % 0.0 mm
11:42 13.3 °C 9.7 °C 1028.0 hPa Calm   3.2 km/h 79 % 0.0 mm
11:47 13.3 °C 9.7 °C 1028.0 hPa Calm   3.2 km/h 79 % 0.0 mm
11:52 13.4 °C 10.2 °C 1028.0 hPa Calm   3.2 km/h 81 % 0.0 mm
11:57 13.7 °C 10.1 °C 1028.0 hPa Calm   3.2 km/h 79 % 0.0 mm
12:02 13.9 °C 10.3 °C 1028.0 hPa Calm   3.2 km/h 79 % 0.0 mm
12:07 13.6 °C 9.8 °C 1028.0 hPa ESE 1.6 km/h 3.2 km/h 78 % 0.0 mm
12:12 13.5 °C 10.3 °C 1028.0 hPa Calm   6.4 km/h 81 % 0.0 mm
12:17 13.9 °C 10.5 °C 1028.0 hPa South 4.8 km/h 6.4 km/h 80 % 0.0 mm
12:22 14.2 °C 10.6 °C 1027.7 hPa ESE 1.6 km/h 4.8 km/h 79 % 0.0 mm
12:32 14.4 °C 10.4 °C 1027.7 hPa SSW 1.6 km/h 6.4 km/h 77 % 0.0 mm
12:42 14.9 °C 10.5 °C 1027.7 hPa Calm   8.0 km/h 75 % 0.0 mm
12:57 15.3 °C 10.7 °C 1027.7 hPa Calm   6.4 km/h 74 % 0.0 mm
13:02 15.3 °C 10.5 °C 1027.7 hPa ESE 4.8 km/h 6.4 km/h 73 % 0.0 mm
13:07 15.4 °C 10.6 °C 1027.7 hPa ESE 1.6 km/h 6.4 km/h 73 % 0.0 mm
13:12 15.8 °C 10.6 °C 1027.7 hPa Calm   6.4 km/h 71 % 0.0 mm
13:17 16.1 °C 10.0 °C 1027.7 hPa Calm   6.4 km/h 67 % 0.0 mm
13:22 16.3 °C 10.4 °C 1027.7 hPa Calm   6.4 km/h 68 % 0.0 mm
13:27 16.3 °C 10.2 °C 1027.7 hPa Calm   6.4 km/h 67 % 0.0 mm
13:32 16.2 °C 9.6 °C 1027.7 hPa East 1.6 km/h 4.8 km/h 65 % 0.0 mm
13:37 16.2 °C 9.4 °C 1027.7 hPa Calm   4.8 km/h 64 % 0.0 mm
13:47 16.4 °C 9.6 °C 1027.7 hPa SW 3.2 km/h 8.0 km/h 64 % 0.0 mm
13:52 16.6 °C 9.8 °C 1027.7 hPa SE 1.6 km/h 6.4 km/h 64 % 0.0 mm
13:57 16.6 °C 9.3 °C 1027.7 hPa SSW 1.6 km/h 6.4 km/h 62 % 0.0 mm
14:02 16.7 °C 9.1 °C 1027.7 hPa Calm   4.8 km/h 61 % 0.0 mm
14:07 16.8 °C 9.2 °C 1027.7 hPa ENE 3.2 km/h 4.8 km/h 61 % 0.0 mm
14:12 16.9 °C 9.6 °C 1027.7 hPa SE 3.2 km/h 4.8 km/h 62 % 0.0 mm
14:17 17.1 °C 9.3 °C 1027.3 hPa SW 3.2 km/h 4.8 km/h 60 % 0.0 mm
14:22 17.1 °C 8.8 °C 1027.3 hPa Calm   4.8 km/h 58 % 0.0 mm
14:32 16.7 °C 9.1 °C 1027.0 hPa SW 3.2 km/h 8.0 km/h 61 % 0.0 mm
14:37 16.8 °C 9.5 °C 1027.0 hPa South 1.6 km/h 8.0 km/h 62 % 0.0 mm
14:42 17.1 °C 9.5 °C 1027.0 hPa SE 1.6 km/h 8.0 km/h 61 % 0.0 mm
14:47 17.1 °C 9.5 °C 1026.6 hPa Calm   8.0 km/h 61 % 0.0 mm
14:52 17.2 °C 9.4 °C 1026.6 hPa ESE 4.8 km/h 8.0 km/h 60 % 0.0 mm
14:57 17.0 °C 8.9 °C 1026.6 hPa SSE 1.6 km/h 8.0 km/h 59 % 0.0 mm
15:02 17.1 °C 8.8 °C 1026.6 hPa ESE 3.2 km/h 8.0 km/h 58 % 0.0 mm
15:12 17.3 °C 9.0 °C 1026.6 hPa SW 1.6 km/h 8.0 km/h 58 % 0.0 mm
15:17 17.4 °C 9.6 °C 1027.0 hPa Calm   4.8 km/h 60 % 0.0 mm
15:22 17.6 °C 8.7 °C 1026.6 hPa East 1.6 km/h 4.8 km/h 56 % 0.0 mm
15:27 17.2 °C 9.4 °C 1026.6 hPa Calm   4.8 km/h 60 % 0.0 mm
15:32 17.2 °C 9.4 °C 1026.6 hPa SSW 1.6 km/h 4.8 km/h 60 % 0.0 mm
15:37 17.4 °C 9.1 °C 1026.6 hPa SE 1.6 km/h 6.4 km/h 58 % 0.0 mm
15:42 17.6 °C 9.0 °C 1026.6 hPa NW 3.2 km/h 6.4 km/h 57 % 0.0 mm
15:52 17.6 °C 8.5 °C 1026.6 hPa ENE 3.2 km/h 4.8 km/h 55 % 0.0 mm
15:57 17.4 °C 8.8 °C 1026.6 hPa Calm   4.8 km/h 57 % 0.0 mm
16:02 17.8 °C 9.7 °C 1026.6 hPa SW 4.8 km/h 4.8 km/h 59 % 0.0 mm
16:07 18.1 °C 9.2 °C 1026.3 hPa West 4.8 km/h 6.4 km/h 56 % 0.0 mm
16:12 18.1 °C 9.2 °C 1026.3 hPa SW 1.6 km/h 8.0 km/h 56 % 0.0 mm
16:17 18.1 °C 9.2 °C 1026.3 hPa Calm   8.0 km/h 56 % 0.0 mm
16:22 18.2 °C 9.3 °C 1026.0 hPa Calm   8.0 km/h 56 % 0.0 mm
16:32 18.2 °C 9.3 °C 1026.0 hPa SSW 3.2 km/h 9.7 km/h 56 % 0.0 mm
16:37 18.2 °C 9.3 °C 1026.0 hPa Calm   8.0 km/h 56 % 0.0 mm
16:42 18.5 °C 9.0 °C 1026.0 hPa Calm   8.0 km/h 54 % 0.0 mm
16:47 18.6 °C 8.6 °C 1026.0 hPa Calm   8.0 km/h 52 % 0.0 mm
16:52 18.3 °C 9.1 °C 1026.0 hPa Calm   3.2 km/h 55 % 0.0 mm
16:57 18.4 °C 9.2 °C 1026.0 hPa Calm   3.2 km/h 55 % 0.0 mm
17:02 18.5 °C 9.3 °C 1026.0 hPa Calm   3.2 km/h 55 % 0.0 mm
17:07 18.2 °C 9.3 °C 1026.0 hPa Calm   4.8 km/h 56 % 0.0 mm
17:12 18.1 °C 8.6 °C 1026.0 hPa SE 3.2 km/h 8.0 km/h 54 % 0.0 mm
17:17 18.1 °C 9.2 °C 1025.6 hPa SSW 4.8 km/h 8.0 km/h 56 % 0.0 mm
17:22 18.2 °C 9.3 °C 1026.0 hPa Calm   8.0 km/h 56 % 0.0 mm
17:27 18.4 °C 9.2 °C 1026.0 hPa WSW 1.6 km/h 6.4 km/h 55 % 0.0 mm
17:32 18.4 °C 9.2 °C 1026.0 hPa Calm   6.4 km/h 55 % 0.0 mm
17:37 18.7 °C 9.5 °C 1025.6 hPa SSW 1.6 km/h 4.8 km/h 55 % 0.0 mm
17:42 18.8 °C 9.3 °C 1026.0 hPa Calm   4.8 km/h 54 % 0.0 mm
17:47 18.9 °C 9.4 °C 1025.6 hPa SSE 3.2 km/h 4.8 km/h 54 % 0.0 mm
17:52 18.5 °C 9.3 °C 1025.6 hPa Calm   4.8 km/h 55 % 0.0 mm
17:57 18.5 °C 9.3 °C 1025.6 hPa Calm   4.8 km/h 55 % 0.0 mm
18:02 18.7 °C 9.5 °C 1025.6 hPa Calm   4.8 km/h 55 % 0.0 mm
18:07 18.5 °C 9.0 °C 1025.6 hPa WNW 1.6 km/h 1.6 km/h 54 % 0.0 mm
18:12 18.2 °C 9.0 °C 1025.6 hPa Calm   1.6 km/h 55 % 0.0 mm
18:17 18.2 °C 9.3 °C 1025.6 hPa Calm   1.6 km/h 56 % 0.0 mm
18:22 18.1 °C 8.9 °C 1025.6 hPa Calm   3.2 km/h 55 % 0.0 mm
18:32 18.1 °C 9.7 °C 1025.6 hPa Calm   3.2 km/h 58 % 0.0 mm
18:42 18.2 °C 9.3 °C 1025.6 hPa Calm   3.2 km/h 56 % 0.0 mm
18:47 18.3 °C 10.1 °C 1025.6 hPa Calm   1.6 km/h 59 % 0.0 mm
18:52 18.4 °C 10.7 °C 1025.6 hPa Calm   1.6 km/h 61 % 0.0 mm
18:57 18.7 °C 11.3 °C 1025.6 hPa Calm   1.6 km/h 62 % 0.0 mm
19:02 18.3 °C 11.1 °C 1025.6 hPa Calm     63 % 0.0 mm
19:07 17.5 °C 10.1 °C 1025.6 hPa Calm     62 % 0.0 mm
19:12 16.8 °C 10.2 °C 1025.6 hPa Calm     65 % 0.0 mm
19:17 16.1 °C 10.2 °C 1025.6 hPa Calm   1.6 km/h 68 % 0.0 mm
19:22 15.4 °C 10.2 °C 1025.6 hPa Calm   1.6 km/h 71 % 0.0 mm
19:27 15.1 °C 10.1 °C 1025.6 hPa Calm   1.6 km/h 72 % 0.0 mm
19:32 14.7 °C 9.5 °C 1025.6 hPa Calm     71 % 0.0 mm
19:37 14.2 °C 9.4 °C 1025.6 hPa Calm   1.6 km/h 73 % 0.0 mm
19:42 13.8 °C 9.6 °C 1025.6 hPa Calm   1.6 km/h 76 % 0.0 mm
19:47 13.5 °C 9.5 °C 1025.6 hPa Calm   1.6 km/h 77 % 0.0 mm
19:52 13.4 °C 9.4 °C 1025.6 hPa Calm     77 % 0.0 mm
19:57 13.6 °C 9.8 °C 1025.6 hPa Calm     78 % 0.0 mm
20:02 13.3 °C 9.5 °C 1025.6 hPa Calm     78 % 0.0 mm
20:12 13.1 °C 9.7 °C 1025.6 hPa Calm     80 % 0.0 mm
20:17 13.0 °C 9.8 °C 1025.6 hPa Calm   1.6 km/h 81 % 0.0 mm
20:22 12.6 °C 9.8 °C 1025.6 hPa WNW 1.6 km/h 3.2 km/h 83 % 0.0 mm
20:27 12.3 °C 9.9 °C 1025.3 hPa Calm   3.2 km/h 85 % 0.0 mm
20:32 12.1 °C 9.8 °C 1025.3 hPa Calm   1.6 km/h 86 % 0.0 mm
20:37 11.8 °C 9.7 °C 1025.3 hPa WNW 1.6 km/h 3.2 km/h 87 % 0.0 mm
20:42 11.6 °C 9.7 °C 1025.3 hPa Calm   3.2 km/h 88 % 0.0 mm
20:47 11.4 °C 9.7 °C 1025.3 hPa WNW 3.2 km/h 3.2 km/h 89 % 0.0 mm
20:52 11.4 °C 9.7 °C 1025.6 hPa Calm   3.2 km/h 89 % 0.0 mm
20:57 11.3 °C 9.6 °C 1025.6 hPa North 1.6 km/h 3.2 km/h 89 % 0.0 mm
21:02 11.3 °C 9.6 °C 1025.6 hPa North 1.6 km/h 3.2 km/h 89 % 0.0 mm
21:12 11.2 °C 9.6 °C 1025.3 hPa Calm   3.2 km/h 90 % 0.0 mm
21:17 11.1 °C 9.4 °C 1025.3 hPa Calm   1.6 km/h 89 % 0.0 mm
21:22 10.9 °C 9.3 °C 1025.3 hPa WNW 1.6 km/h 1.6 km/h 90 % 0.0 mm
21:27 10.8 °C 9.2 °C 1025.6 hPa Calm   1.6 km/h 90 % 0.0 mm
21:32 10.7 °C 9.3 °C 1025.6 hPa Calm   1.6 km/h 91 % 0.0 mm
21:37 10.6 °C 9.2 °C 1025.6 hPa Calm   1.6 km/h 91 % 0.0 mm
21:42 10.8 °C 9.6 °C 1025.6 hPa Calm   1.6 km/h 92 % 0.0 mm
21:52 10.8 °C 9.1 °C 1025.6 hPa Calm   1.6 km/h 89 % 0.0 mm
21:57 10.6 °C 8.9 °C 1025.6 hPa Calm   1.6 km/h 89 % 0.0 mm
22:02 10.4 °C 8.8 °C 1025.6 hPa Calm     90 % 0.0 mm
22:07 10.4 °C 9.0 °C 1025.6 hPa Calm     91 % 0.0 mm
22:17 10.1 °C 8.7 °C 1025.6 hPa Calm   1.6 km/h 91 % 0.0 mm
22:22 9.9 °C 8.5 °C 1025.6 hPa Calm   1.6 km/h 91 % 0.0 mm
22:27 9.8 °C 8.6 °C 1025.6 hPa WNW 1.6 km/h 1.6 km/h 92 % 0.0 mm
22:32 9.8 °C 8.6 °C 1025.6 hPa Calm   1.6 km/h 92 % 0.0 mm
22:37 9.7 °C 8.5 °C 1025.6 hPa NNE 1.6 km/h 1.6 km/h 92 % 0.0 mm
22:42 9.8 °C 8.7 °C 1025.6 hPa Calm   1.6 km/h 93 % 0.0 mm
22:47 9.8 °C 8.7 °C 1025.3 hPa Calm   1.6 km/h 93 % 0.0 mm
22:52 9.7 °C 8.5 °C 1025.3 hPa Calm   1.6 km/h 92 % 0.0 mm
22:57 9.4 °C 8.2 °C 1025.3 hPa Calm   1.6 km/h 92 % 0.0 mm
23:02 9.3 °C 8.2 °C 1025.3 hPa Calm     93 % 0.0 mm
23:07 9.2 °C 8.1 °C 1025.6 hPa Calm     93 % 0.0 mm
23:12 9.1 °C 8.0 °C 1025.3 hPa Calm     93 % 0.0 mm
23:22 9.0 °C 8.1 °C 1025.6 hPa Calm   1.6 km/h 94 % 0.0 mm
23:27 9.1 °C 8.2 °C 1025.3 hPa Calm   1.6 km/h 94 % 0.0 mm
23:32 9.1 °C 8.2 °C 1025.3 hPa Calm   1.6 km/h 94 % 0.0 mm
23:37 9.0 °C 7.9 °C 1025.3 hPa Calm   1.6 km/h 93 % 0.0 mm
23:42 8.7 °C 7.6 °C 1025.6 hPa Calm   1.6 km/h 93 % 0.0 mm
23:47 8.8 °C 7.9 °C 1025.3 hPa Calm   1.6 km/h 94 % 0.0 mm
23:52 8.8 °C 7.9 °C 1025.3 hPa Calm   1.6 km/h 94 % 0.0 mm
23:57 8.7 °C 7.6 °C 1025.3 hPa WNW 1.6 km/h   93 % 0.0 mm
Meteo18
Compliments of Weather Underground - 4 mb

Script developed by  Jim McMurry - jmcmurry@mwt.net Adapted for the template by  Wim van der Kuil - Leuven-Template.eu

You find our weather info also at:

European Weather Network

Weather Underground

Equipment we use:

Weather-station
Davis Vue

Weather-program
Meteohub

Weather-server
Raspberry PI 2 B+

Provider
1 and 1

Davis Vue

Meteohub

Raspberry PI 2 B+

1 and 1